Pagrindinis puslapis
METAR-TAF:

METAR-TAF

Oro uostai :

Tarptautinis Vienos oro uostas

Viena, Austrija

platuma: 48-07N, ilguma: 016-34E, Aukštis: 183 m

Dabartinis oras

Ataskaita buvo paskelbta 25 minutes, ne 19:20 UTC
Vėjas 5 kt iš Pietryčių
Temperatūra 11°C
Drėgmė 76%
Slėgis 1013 hPa
Matomumas 10 km arba daugiau
Mažai debesys ne aukštis 1500 ft

METAR: LOWW 291920Z 14005KT 9999 FEW015 11/07 Q1013 NOSIG

Laikas: 20:45 (19:45 UTC)

Prognozė

Ataskaita buvo paskelbta 2 valandos ir 30 minutes, ne 17:15 UTC
Prognozė galioja nuo 29 metu 18 UTC su 01 metu 24 UTC
Vėjas 12 kt iš Pietryčių
Matomumas 10 km arba daugiau
Išsisklaidę debesys ne aukštis 3000 ft
Laikinai
nuo 01 metu 09 UTC su 01 metu 18 UTC
lietus
Tikimybė 30% :
Laikinai
nuo 01 metu 12 UTC su 01 metu 15 UTC
Su prošvaistėmis ne aukštis 1400 ft
lietus,

TAF: LOWW 291715Z 2918/0124 14012KT 9999 SCT030 TX12/2918Z TN08/0124Z TEMPO 0109/0118 -RA PROB30 TEMPO 0112/0115 RA BKN014

Orai ataskaitas ir orų prognozės (METAR, TAF).

turimą stotys yra geltonos ir raudonos taškus žemėlapyje.

Perkelti pele per norėdami pamatyti stoties vardą.

Tada spustelėkite, norėdami matyti oro stebėjimo ir prognozės.

Norėdami pakeisti žemėlapį: spustelėkite ant žalios mygtukų su juodo kryžiaus žemyn,; žalią mygtuką su brūkšneliu, jei norite nutolinti; arba žalių rodyklių gretimoms žemėlapius.


METAR-TAF: